Hauptseite
METAR-TAF:

METAR-TAF

Flughäfen :

George F. L. Charles Airport

Castries, St. Lucia

Breite: 14-01N, Länge: 061-00W, Höhe: 2 m

Beobachtung

Neuester Wetterbericht von vor 3 Stunden und 54 Minuten, um 01:00 UTC
Wind 5 kt aus Ost
Temperatur 25°C
Luftfeuchtigkeit 89%
Luftdruck 1016 hPa
Sichtweite 10 km oder mehr
Aufgelockert bewölkt in der Höhe von 2300 ft

METAR: TLPC 280100Z 10005KT 9999 SCT023 25/23 Q1016 NOSIG

Zeit: 00:54 (04:54 UTC)

Prognose

Neuester Wetterbericht von vor 5 Stunden und 52 Minuten, um 23:02 UTC
Gültige Prognose vom 28 um 00 UTC bis 28 um 24 UTC
Wind 7 kt aus Ost
Sichtweite 10 km oder mehr
Aufgelockert bewölkt in der Höhe von 2500 ft
Wahrscheinlichkeit 30% :
Zeitweise
vom 28 um 00 UTC bis 28 um 12 UTC
Durchbrochene Bewölkung in der Höhe von 1800 ft
Regenschauer,

TAF: TLPC 272302Z 2800/2824 08007KT 9999 SCT025 PROB30 TEMPO 2800/2812 SHRA BKN018

Wetterbeobachtungen und Prognosen von mehr als 4000 Flughäfen (METAR und TAF Bericht).

Die verfügbaren Stationen werden durch gelbe und rote Markierungen auf der Karte dargestellt.

Führen Sie die Maus auf sie, um den Namen der Station zu sehen.

Darauf klicken, um die Beobachtung von Wetterbeobachtungen und Prognosen zu sehen.

Um die Karte zu ändern : klicken Sie auf den grünen Tasten mit einem schwarzen Kreuz Zum Vergrößern, auf den grünen Button mit einem Gedankenstrich zu verkleinern, oder auf die grünen Pfeile für benachbarte Karten.


METAR-TAF: